createdAt,value
2018-09-19T00:02:09.624Z,63.20
2018-09-19T00:04:37.657Z,61.76
2018-09-19T00:07:05.690Z,63.15
2018-09-19T00:09:33.721Z,62.62
2018-09-19T00:12:01.780Z,63.76
2018-09-19T00:14:29.776Z,62.79
2018-09-19T00:16:57.789Z,63.51
2018-09-19T00:19:25.797Z,63.68
2018-09-19T00:21:53.870Z,63.95
2018-09-19T00:24:21.865Z,64.89
2018-09-19T00:26:49.905Z,63.79
2018-09-19T00:29:17.984Z,65.11
2018-09-19T00:31:45.967Z,65.26
2018-09-19T00:34:13.985Z,65.36
2018-09-19T00:36:42.021Z,66.39
2018-09-19T00:39:10.259Z,66.53
2018-09-19T00:41:38.395Z,66.85
2018-09-19T00:44:06.418Z,67.38
2018-09-19T00:46:34.472Z,66.80
2018-09-19T00:49:02.460Z,66.79
2018-09-19T00:51:30.511Z,65.46
2018-09-19T00:53:58.542Z,65.29
2018-09-19T00:56:27.562Z,67.02
2018-09-19T00:58:55.581Z,66.30
2018-09-19T01:01:23.576Z,66.38
2018-09-19T01:03:51.703Z,66.80
2018-09-19T01:06:19.754Z,67.28
2018-09-19T01:08:47.701Z,68.22
2018-09-19T01:11:15.737Z,68.48
2018-09-19T01:13:44.746Z,67.88
2018-09-19T01:16:12.992Z,67.63
2018-09-19T01:18:41.017Z,68.16
2018-09-19T01:21:09.045Z,67.56
2018-09-19T01:23:37.064Z,68.44
2018-09-19T01:26:05.084Z,68.35
2018-09-19T01:28:33.344Z,69.30
2018-09-19T01:31:01.361Z,70.85
2018-09-19T01:33:29.392Z,71.16
2018-09-19T01:35:57.383Z,71.65
2018-09-19T01:38:25.429Z,71.50
2018-09-19T01:40:53.405Z,71.30
2018-09-19T01:43:21.471Z,70.63
2018-09-19T01:45:49.481Z,70.61
2018-09-19T01:48:17.473Z,71.31
2018-09-19T01:50:45.466Z,70.13
2018-09-19T01:53:13.508Z,70.49
2018-09-19T01:55:41.570Z,69.76
2018-09-19T01:58:09.640Z,69.40
2018-09-19T02:00:37.676Z,69.17
2018-09-19T02:03:05.729Z,70.40
2018-09-19T02:05:33.756Z,69.80
2018-09-19T02:08:01.804Z,68.96
2018-09-19T02:10:29.861Z,68.31
2018-09-19T02:12:57.861Z,68.07
2018-09-19T02:15:25.897Z,68.01
2018-09-19T02:17:53.929Z,67.92
2018-09-19T02:20:21.961Z,68.42
2018-09-19T02:22:50.771Z,68.04
2018-09-19T02:25:18.892Z,69.16
2018-09-19T02:27:46.904Z,69.00
2018-09-19T02:30:14.939Z,68.87
2018-09-19T02:32:42.948Z,68.50
2018-09-19T02:35:10.996Z,68.15
2018-09-19T02:37:38.993Z,68.76
2018-09-19T02:40:07.119Z,69.14
2018-09-19T02:42:35.348Z,67.95
2018-09-19T02:45:03.437Z,68.45
2018-09-19T02:47:31.489Z,67.39
2018-09-19T02:49:59.496Z,67.83
2018-09-19T02:52:27.486Z,66.72
2018-09-19T02:54:55.514Z,67.08
2018-09-19T02:57:23.528Z,66.76
2018-09-19T02:59:51.557Z,66.62
2018-09-19T03:02:19.552Z,65.52
2018-09-19T03:04:47.543Z,65.84
2018-09-19T03:07:15.536Z,66.11
2018-09-19T03:09:43.572Z,65.91
2018-09-19T03:12:11.608Z,66.24
2018-09-19T03:14:39.630Z,66.27
2018-09-19T03:17:07.680Z,66.64
2018-09-19T03:19:35.703Z,66.40
2018-09-19T03:22:03.757Z,67.02
2018-09-19T03:24:31.748Z,67.32
2018-09-19T03:26:59.827Z,68.14
2018-09-19T03:29:27.937Z,67.30
2018-09-19T03:31:55.948Z,68.46
2018-09-19T03:34:23.987Z,67.59
2018-09-19T03:36:52.394Z,66.51
2018-09-19T03:39:20.397Z,66.74
2018-09-19T03:41:48.418Z,66.65
2018-09-19T03:44:16.447Z,67.12
2018-09-19T03:46:44.475Z,66.61
2018-09-19T03:49:12.518Z,67.48
2018-09-19T03:51:40.559Z,66.19
2018-09-19T03:54:08.877Z,66.32
2018-09-19T03:56:36.963Z,66.40
2018-09-19T03:59:06.150Z,66.10
2018-09-19T04:01:34.208Z,66.80
2018-09-19T04:04:02.214Z,67.00
2018-09-19T04:06:30.228Z,66.58
2018-09-19T04:08:58.217Z,67.18
2018-09-19T04:11:26.378Z,68.67
2018-09-19T04:13:54.417Z,69.18
2018-09-19T04:16:22.447Z,69.64
2018-09-19T04:18:50.539Z,70.29
2018-09-19T04:21:18.660Z,71.31
2018-09-19T04:23:46.723Z,70.66
2018-09-19T04:26:14.734Z,70.65
2018-09-19T04:28:42.772Z,71.01
2018-09-19T04:31:10.789Z,70.38
2018-09-19T04:33:38.795Z,71.21
2018-09-19T04:36:06.985Z,71.15
2018-09-19T04:38:35.132Z,70.59
2018-09-19T04:41:03.097Z,69.91
2018-09-19T04:43:31.100Z,68.51
2018-09-19T04:45:59.138Z,69.88
2018-09-19T04:48:27.152Z,69.34
2018-09-19T04:50:55.181Z,69.69
2018-09-19T04:53:23.200Z,71.20
2018-09-19T04:55:51.261Z,70.55
2018-09-19T04:58:19.271Z,70.98
2018-09-19T05:00:47.330Z,70.39
2018-09-19T05:03:15.320Z,70.38
2018-09-19T05:05:43.469Z,71.37
2018-09-19T05:08:11.454Z,70.74
2018-09-19T05:10:39.517Z,71.71
2018-09-19T05:13:07.517Z,71.12
2018-09-19T05:15:35.526Z,71.13
2018-09-19T05:18:03.538Z,70.57
2018-09-19T05:20:31.576Z,70.00
2018-09-19T05:22:59.577Z,69.91
2018-09-19T05:25:27.599Z,69.68
2018-09-19T05:27:55.605Z,67.92
2018-09-19T05:30:24.704Z,67.60
2018-09-19T05:32:52.704Z,67.15
2018-09-19T05:35:20.762Z,66.82
2018-09-19T05:37:48.784Z,66.08
2018-09-19T05:40:16.808Z,65.06
2018-09-19T05:42:44.804Z,62.62
2018-09-19T05:45:12.807Z,62.57
2018-09-19T05:47:40.831Z,61.81
2018-09-19T05:50:08.957Z,60.70
2018-09-19T05:52:36.962Z,59.04
2018-09-19T05:55:04.986Z,55.74
2018-09-19T05:57:33.001Z,53.49
2018-09-19T06:00:01.026Z,50.68
2018-09-19T06:02:29.092Z,47.39
2018-09-19T06:04:57.140Z,45.67
2018-09-19T06:07:25.182Z,44.72
2018-09-19T06:09:53.168Z,43.83
2018-09-19T06:12:21.244Z,43.16
2018-09-19T06:14:49.264Z,41.21
2018-09-19T06:17:17.281Z,40.11
2018-09-19T06:19:45.278Z,39.23
2018-09-19T06:22:16.258Z,37.83
2018-09-19T06:24:44.292Z,36.32
2018-09-19T06:27:12.389Z,35.44
2018-09-19T06:29:40.401Z,33.26
2018-09-19T06:32:08.439Z,31.52
2018-09-19T06:34:36.417Z,30.86
2018-09-19T06:37:04.806Z,30.97
2018-09-19T06:39:32.793Z,30.19
2018-09-19T06:42:00.846Z,29.13
2018-09-19T06:44:28.898Z,27.66
2018-09-19T06:46:56.953Z,26.90
2018-09-19T06:49:24.885Z,26.82
2018-09-19T06:51:52.938Z,27.36
2018-09-19T06:54:21.894Z,27.83
2018-09-19T06:56:49.938Z,27.19
2018-09-19T06:59:17.937Z,28.60
2018-09-19T07:01:45.962Z,28.97
2018-09-19T07:04:13.941Z,30.62
2018-09-19T07:06:42.001Z,29.78
2018-09-19T07:09:10.681Z,30.24
2018-09-19T07:11:38.882Z,29.48
2018-09-19T07:14:07.128Z,30.54
2018-09-19T07:16:35.161Z,29.40
2018-09-19T07:19:03.298Z,29.07
2018-09-19T07:21:31.198Z,27.54
2018-09-19T07:23:59.185Z,27.26
2018-09-19T07:26:27.290Z,26.37
2018-09-19T07:28:55.287Z,24.89
2018-09-19T07:31:23.286Z,25.25
2018-09-19T07:33:51.260Z,23.63
2018-09-19T07:36:19.256Z,23.34
2018-09-19T07:38:47.262Z,22.07
2018-09-19T07:41:15.306Z,22.63
2018-09-19T07:43:43.330Z,21.51
2018-09-19T07:46:11.314Z,20.68
2018-09-19T07:48:39.340Z,21.26
2018-09-19T07:51:07.320Z,20.52
2018-09-19T07:53:36.104Z,21.03
2018-09-19T07:56:04.651Z,20.81
2018-09-19T07:58:32.964Z,21.55
2018-09-19T08:01:01.014Z,22.40
2018-09-19T08:03:29.052Z,20.65
2018-09-19T08:05:57.040Z,20.94
2018-09-19T08:08:25.028Z,21.29
2018-09-19T08:10:53.473Z,21.31
2018-09-19T08:13:21.465Z,20.13
2018-09-19T08:15:49.512Z,21.24
2018-09-19T08:18:17.499Z,22.18
2018-09-19T08:20:45.525Z,22.58
2018-09-19T08:23:13.507Z,22.32
2018-09-19T08:25:41.502Z,21.95
2018-09-19T08:28:09.498Z,22.40
2018-09-19T08:30:37.515Z,23.31
2018-09-19T08:33:05.520Z,23.88
2018-09-19T08:35:33.528Z,24.35
2018-09-19T08:38:01.549Z,24.08
2018-09-19T08:40:29.574Z,24.22
2018-09-19T08:42:57.588Z,23.24
2018-09-19T08:45:26.481Z,24.89
2018-09-19T08:47:54.493Z,25.32
2018-09-19T08:50:22.534Z,25.01
2018-09-19T08:52:50.525Z,25.34
2018-09-19T08:55:18.575Z,25.66
2018-09-19T08:57:46.558Z,26.48
2018-09-19T09:00:14.560Z,25.66
2018-09-19T09:02:42.655Z,25.78
2018-09-19T09:05:10.733Z,25.72
2018-09-19T09:07:38.749Z,24.32
2018-09-19T09:10:06.797Z,25.97
2018-09-19T09:12:34.853Z,24.93
2018-09-19T09:15:02.886Z,25.51
2018-09-19T09:17:30.889Z,26.82
2018-09-19T09:19:58.923Z,25.92
2018-09-19T09:22:26.940Z,25.44
2018-09-19T09:24:55.068Z,26.04
2018-09-19T09:27:23.158Z,27.45
2018-09-19T09:29:51.068Z,27.69
2018-09-19T09:32:19.134Z,28.78
2018-09-19T09:34:47.204Z,27.47
2018-09-19T09:37:15.197Z,29.45
2018-09-19T09:39:43.284Z,30.70
2018-09-19T09:42:11.329Z,30.28
2018-09-19T09:44:39.384Z,31.21
2018-09-19T09:47:07.401Z,31.49
2018-09-19T09:49:35.473Z,31.32
2018-09-19T09:52:03.498Z,30.99
2018-09-19T09:54:31.525Z,31.09
2018-09-19T09:56:59.690Z,32.21
2018-09-19T09:59:27.726Z,30.49
2018-09-19T10:01:55.748Z,30.98
2018-09-19T10:04:23.778Z,32.50
2018-09-19T10:06:51.788Z,31.82
2018-09-19T10:09:19.825Z,32.96
2018-09-19T10:11:48.020Z,32.56
2018-09-19T10:14:16.005Z,35.04
2018-09-19T10:16:44.057Z,36.73
2018-09-19T10:19:12.098Z,35.32
2018-09-19T10:21:40.140Z,35.95
2018-09-19T10:24:08.343Z,34.70
2018-09-19T10:26:36.349Z,34.75
2018-09-19T10:29:04.393Z,35.93
2018-09-19T10:31:32.420Z,36.63
2018-09-19T10:34:00.449Z,35.31
2018-09-19T10:36:28.466Z,36.75
2018-09-19T10:38:56.477Z,37.03
2018-09-19T10:41:24.498Z,36.16
2018-09-19T10:43:52.536Z,36.11
2018-09-19T10:46:20.535Z,37.54
2018-09-19T10:48:48.814Z,37.48
2018-09-19T10:51:16.841Z,37.32
2018-09-19T10:53:44.841Z,38.61
2018-09-19T10:56:12.858Z,38.59
2018-09-19T10:58:40.865Z,38.86
2018-09-19T11:01:08.876Z,39.61
2018-09-19T11:03:36.912Z,37.67
2018-09-19T11:06:05.105Z,37.47
2018-09-19T11:08:33.157Z,37.02
2018-09-19T11:11:01.156Z,36.93
2018-09-19T11:13:29.203Z,36.53
2018-09-19T11:15:57.248Z,36.47
2018-09-19T11:18:25.320Z,38.45
2018-09-19T11:20:53.453Z,37.80
2018-09-19T11:23:21.521Z,37.97
2018-09-19T11:25:49.528Z,38.33
2018-09-19T11:28:17.566Z,37.59
2018-09-19T11:30:45.696Z,39.12
2018-09-19T11:33:13.713Z,39.69
2018-09-19T11:35:41.735Z,38.99
2018-09-19T11:38:09.800Z,38.64
2018-09-19T11:40:37.821Z,37.79
2018-09-19T11:43:06.265Z,37.91
2018-09-19T11:45:34.305Z,37.00
2018-09-19T11:48:02.389Z,37.79
2018-09-19T11:50:30.431Z,36.44
2018-09-19T11:52:58.462Z,37.07
2018-09-19T11:55:26.489Z,37.83
2018-09-19T11:57:54.647Z,36.55
2018-09-19T12:00:22.645Z,37.37
2018-09-19T12:02:50.721Z,37.11
2018-09-19T12:05:18.761Z,35.96
2018-09-19T12:07:46.796Z,36.67
2018-09-19T12:10:15.065Z,37.43
2018-09-19T12:12:43.137Z,35.61
2018-09-19T12:15:11.262Z,36.38
2018-09-19T12:17:39.304Z,37.63
2018-09-19T12:20:07.361Z,36.91
2018-09-19T12:22:35.363Z,36.40
2018-09-19T12:25:03.745Z,36.54
2018-09-19T12:27:31.769Z,35.84
2018-09-19T12:29:59.824Z,36.51
2018-09-19T12:32:27.826Z,35.63
2018-09-19T12:34:55.874Z,36.59
2018-09-19T12:37:23.908Z,36.96
2018-09-19T12:39:51.935Z,36.84
2018-09-19T12:42:19.937Z,35.95
2018-09-19T12:44:47.982Z,35.23
2018-09-19T12:47:15.977Z,36.26
2018-09-19T12:49:44.049Z,34.97
2018-09-19T12:52:12.089Z,35.71
2018-09-19T12:54:40.092Z,36.22
2018-09-19T12:57:08.097Z,34.95
2018-09-19T12:59:36.124Z,34.91
2018-09-19T13:02:04.322Z,34.44
2018-09-19T13:04:32.352Z,35.28
2018-09-19T13:07:00.364Z,35.03
2018-09-19T13:09:28.413Z,34.00
2018-09-19T13:11:56.445Z,36.08
2018-09-19T13:14:24.610Z,35.72
2018-09-19T13:16:52.619Z,36.25
2018-09-19T13:19:20.617Z,35.90
2018-09-19T13:21:48.648Z,35.89
2018-09-19T13:24:16.672Z,37.31
2018-09-19T13:26:44.721Z,35.93
2018-09-19T13:31:52.792Z,36.00
2018-09-19T13:34:20.820Z,36.35
2018-09-19T13:36:48.840Z,36.10
2018-09-19T13:39:16.900Z,36.67
2018-09-19T13:41:44.940Z,36.32
2018-09-19T13:44:12.937Z,36.34
2018-09-19T13:46:41.021Z,36.76
2018-09-19T13:49:18.358Z,37.32
2018-09-19T13:51:46.434Z,37.94
2018-09-19T13:54:14.545Z,37.25
2018-09-19T13:56:42.598Z,36.92
2018-09-19T13:59:10.592Z,36.98
2018-09-19T14:01:38.577Z,38.04
2018-09-19T14:04:06.695Z,38.81
2018-09-19T14:06:34.677Z,37.85
2018-09-19T14:09:02.861Z,38.10
2018-09-19T14:11:30.918Z,37.21
2018-09-19T14:13:58.940Z,38.63
2018-09-19T14:16:27.050Z,38.50
2018-09-19T14:18:55.090Z,37.49
2018-09-19T14:21:23.118Z,38.90
2018-09-19T14:23:51.121Z,37.03
2018-09-19T14:26:19.159Z,38.32
2018-09-19T14:28:47.189Z,39.14
2018-09-19T14:31:15.212Z,38.86
2018-09-19T14:33:43.209Z,38.77
2018-09-19T14:36:11.239Z,38.15
2018-09-19T14:38:39.272Z,37.48
2018-09-19T14:41:07.282Z,37.90
2018-09-19T14:43:35.272Z,38.28
2018-09-19T14:46:03.280Z,37.85
2018-09-19T14:48:31.309Z,36.98
2018-09-19T14:50:59.319Z,38.18
2018-09-19T14:53:27.324Z,38.00
2018-09-19T14:55:55.349Z,38.23
2018-09-19T14:58:23.368Z,37.40
2018-09-19T15:00:51.418Z,37.96
2018-09-19T15:03:19.453Z,38.70
2018-09-19T15:05:47.465Z,38.28
2018-09-19T15:08:15.526Z,37.33
2018-09-19T15:10:43.549Z,38.87
2018-09-19T15:13:11.585Z,37.98
2018-09-19T15:15:39.581Z,37.22
2018-09-19T15:18:07.669Z,37.21
2018-09-19T15:20:35.652Z,36.01
2018-09-19T15:23:03.692Z,37.61
2018-09-19T15:25:31.715Z,38.04
2018-09-19T15:27:59.737Z,38.15
2018-09-19T15:30:27.754Z,37.20
2018-09-19T15:32:55.782Z,38.43
2018-09-19T15:35:23.802Z,37.79
2018-09-19T15:37:51.805Z,38.45
2018-09-19T15:40:19.825Z,38.85
2018-09-19T15:42:47.928Z,37.72
2018-09-19T15:45:15.948Z,38.52
2018-09-19T15:47:43.985Z,38.96
2018-09-19T15:50:12.042Z,38.67
2018-09-19T15:52:40.072Z,38.36
2018-09-19T15:55:08.110Z,36.92
2018-09-19T15:57:36.140Z,37.55
2018-09-19T16:00:04.896Z,36.99
2018-09-19T16:02:33.001Z,37.53
2018-09-19T16:05:01.024Z,37.65
2018-09-19T16:07:29.033Z,37.59
2018-09-19T16:09:57.045Z,37.58
2018-09-19T16:12:25.340Z,38.81
2018-09-19T16:14:53.417Z,38.93
2018-09-19T16:17:21.417Z,39.63
2018-09-19T16:19:49.421Z,39.14
2018-09-19T16:22:17.456Z,39.99
2018-09-19T16:24:45.472Z,39.24
2018-09-19T16:27:14.301Z,39.15
2018-09-19T16:29:42.363Z,39.90
2018-09-19T16:32:10.372Z,39.56
2018-09-19T16:34:39.463Z,39.43
2018-09-19T16:37:07.478Z,38.65
2018-09-19T16:39:35.510Z,39.25
2018-09-19T16:42:04.782Z,39.11
2018-09-19T16:44:32.821Z,39.43
2018-09-19T16:47:00.957Z,39.66
2018-09-19T16:49:29.004Z,39.97
2018-09-19T16:51:57.068Z,39.78
2018-09-19T16:54:25.081Z,40.57
2018-09-19T16:56:53.091Z,40.46
2018-09-19T16:59:21.148Z,40.75
2018-09-19T17:01:49.185Z,40.64
2018-09-19T17:04:17.201Z,40.90
2018-09-19T17:06:45.209Z,40.43
2018-09-19T17:09:13.313Z,41.01
2018-09-19T17:11:41.419Z,40.93
2018-09-19T17:14:09.460Z,41.48
2018-09-19T17:16:37.484Z,41.56
2018-09-19T17:19:05.502Z,41.87
2018-09-19T17:21:33.546Z,41.66
2018-09-19T17:24:01.568Z,41.38
2018-09-19T17:26:29.973Z,41.25
2018-09-19T17:28:57.992Z,41.35
2018-09-19T17:31:26.005Z,42.83
2018-09-19T17:33:54.115Z,42.29
2018-09-19T17:36:22.145Z,41.50
2018-09-19T17:38:50.145Z,41.63
2018-09-19T17:41:18.199Z,42.08
2018-09-19T17:43:46.186Z,42.43
2018-09-19T17:46:14.200Z,41.78
2018-09-19T17:48:42.205Z,42.74
2018-09-19T17:51:10.272Z,42.86
2018-09-19T17:53:38.327Z,42.62
2018-09-19T17:56:06.372Z,43.10
2018-09-19T17:58:34.485Z,43.23
2018-09-19T18:01:02.517Z,42.85
2018-09-19T18:03:30.561Z,42.29
2018-09-19T18:05:58.584Z,43.02
2018-09-19T18:08:26.641Z,43.80
2018-09-19T18:10:54.759Z,43.28
2018-09-19T18:13:22.813Z,43.64
2018-09-19T18:15:50.828Z,43.51
2018-09-19T18:18:18.887Z,44.88
2018-09-19T18:20:46.910Z,45.06
2018-09-19T18:23:16.029Z,45.44
2018-09-19T18:25:44.060Z,44.87
2018-09-19T18:28:12.084Z,45.13
2018-09-19T18:30:40.132Z,45.81
2018-09-19T18:33:08.142Z,46.06
2018-09-19T18:35:36.197Z,45.92
2018-09-19T18:38:04.280Z,46.31
2018-09-19T18:40:32.329Z,45.77
2018-09-19T18:43:00.367Z,45.80
2018-09-19T18:45:28.418Z,47.07
2018-09-19T18:47:56.480Z,47.12
2018-09-19T18:50:24.800Z,47.30
2018-09-19T18:52:52.839Z,46.56
2018-09-19T18:55:20.880Z,47.27
2018-09-19T18:57:48.878Z,47.75
2018-09-19T19:00:17.105Z,47.92
2018-09-19T19:02:45.212Z,47.57
2018-09-19T19:05:13.368Z,48.35
2018-09-19T19:07:42.426Z,48.34
2018-09-19T19:10:10.446Z,48.80
2018-09-19T19:12:38.496Z,49.66
2018-09-19T19:15:07.601Z,49.12
2018-09-19T19:17:35.658Z,50.12
2018-09-19T19:20:03.701Z,49.37
2018-09-19T19:22:31.805Z,49.95
2018-09-19T19:24:59.825Z,49.72
2018-09-19T19:27:27.888Z,49.78
2018-09-19T19:29:56.007Z,49.81
2018-09-19T19:32:24.262Z,49.95
2018-09-19T19:34:52.281Z,49.95
2018-09-19T19:37:20.346Z,51.06
2018-09-19T19:39:48.421Z,50.78
2018-09-19T19:42:16.428Z,51.00
2018-09-19T19:44:44.495Z,51.65
2018-09-19T19:47:12.586Z,52.49
2018-09-19T19:49:40.592Z,51.79
2018-09-19T19:52:08.606Z,51.88
2018-09-19T19:54:36.636Z,51.98
2018-09-19T19:57:04.812Z,51.91
2018-09-19T19:59:32.981Z,51.19
2018-09-19T20:02:00.989Z,50.97
2018-09-19T20:04:30.017Z,51.10
2018-09-19T20:06:58.040Z,51.42
2018-09-19T20:09:26.076Z,51.09
2018-09-19T20:11:54.255Z,51.26
2018-09-19T20:14:23.348Z,53.20
2018-09-19T20:16:51.385Z,52.14
2018-09-19T20:19:19.415Z,51.98
2018-09-19T20:21:47.442Z,52.27
2018-09-19T20:24:15.739Z,52.72
2018-09-19T20:26:44.858Z,51.72
2018-09-19T20:29:12.927Z,52.65
2018-09-19T20:31:41.535Z,52.36
2018-09-19T20:34:09.978Z,51.80
2018-09-19T20:36:38.653Z,52.21
2018-09-19T20:39:08.947Z,51.18
2018-09-19T20:41:37.357Z,52.00
2018-09-19T20:44:06.002Z,51.17
2018-09-19T20:46:34.525Z,51.98
2018-09-19T20:49:02.893Z,51.78
2018-09-19T20:51:31.508Z,52.24
2018-09-19T20:54:00.023Z,51.46
2018-09-19T20:56:28.696Z,52.63
2018-09-19T20:58:57.287Z,53.24
2018-09-19T21:01:25.604Z,52.98
2018-09-19T21:03:53.672Z,52.49
2018-09-19T21:06:21.725Z,52.55
2018-09-19T21:08:49.761Z,53.28
2018-09-19T21:11:18.804Z,52.59
2018-09-19T21:13:46.967Z,53.89
2018-09-19T21:16:15.109Z,53.45
2018-09-19T21:18:43.201Z,53.34
2018-09-19T21:21:11.248Z,54.21
2018-09-19T21:23:39.284Z,54.37
2018-09-19T21:26:07.320Z,54.08
2018-09-19T21:28:35.494Z,54.87
2018-09-19T21:31:03.932Z,53.96
2018-09-19T21:33:32.105Z,54.85
2018-09-19T21:36:00.158Z,54.62
2018-09-19T21:38:28.201Z,55.82
2018-09-19T21:40:56.300Z,55.31
2018-09-19T21:43:25.310Z,55.28
2018-09-19T21:45:53.456Z,55.58
2018-09-19T21:48:21.547Z,55.54
2018-09-19T21:50:49.878Z,55.21
2018-09-19T21:53:17.937Z,55.43
2018-09-19T21:55:45.948Z,55.59
2018-09-19T21:58:14.050Z,56.18
2018-09-19T22:00:42.268Z,55.99
2018-09-19T22:03:10.317Z,55.95
2018-09-19T22:05:38.341Z,55.80
2018-09-19T22:08:06.461Z,56.50
2018-09-19T22:10:34.472Z,56.27
2018-09-19T22:13:02.513Z,56.09
2018-09-19T22:15:30.538Z,55.35
2018-09-19T22:17:58.986Z,55.82
2018-09-19T22:20:27.029Z,55.08
2018-09-19T22:22:55.029Z,55.02
2018-09-19T22:25:23.082Z,55.58
2018-09-19T22:27:51.085Z,54.91
2018-09-19T22:30:19.097Z,55.22
2018-09-19T22:32:47.104Z,55.50
2018-09-19T22:35:15.153Z,54.64
2018-09-19T22:37:43.178Z,55.65
2018-09-19T22:40:11.491Z,55.12
2018-09-19T22:42:39.529Z,55.15
2018-09-19T22:45:07.700Z,55.18
2018-09-19T22:47:35.708Z,54.69
2018-09-19T22:50:03.725Z,55.22
2018-09-19T22:52:31.885Z,55.47
2018-09-19T22:55:00.453Z,55.78
2018-09-19T22:57:28.496Z,54.98
2018-09-19T22:59:56.574Z,55.96
2018-09-19T23:02:24.618Z,55.72
2018-09-19T23:04:52.836Z,55.35
2018-09-19T23:07:20.946Z,55.08
2018-09-19T23:09:48.985Z,55.42
2018-09-19T23:12:17.065Z,56.13
2018-09-19T23:14:45.101Z,56.05
2018-09-19T23:17:13.162Z,56.10
2018-09-19T23:19:41.156Z,55.84
2018-09-19T23:22:09.188Z,56.38
2018-09-19T23:24:37.185Z,55.89
2018-09-19T23:27:05.197Z,56.46
2018-09-19T23:29:33.207Z,56.04
2018-09-19T23:32:01.238Z,56.01
2018-09-19T23:34:29.257Z,56.38
2018-09-19T23:36:57.391Z,56.20
2018-09-19T23:39:25.516Z,56.02
2018-09-19T23:41:53.540Z,55.39
2018-09-19T23:44:21.586Z,55.85
2018-09-19T23:46:49.619Z,56.73
2018-09-19T23:49:17.626Z,56.43
2018-09-19T23:51:45.619Z,56.32
2018-09-19T23:54:13.725Z,56.64
2018-09-19T23:56:41.745Z,56.94
2018-09-19T23:59:09.785Z,56.83
